Time;durP1;ratioP1;P1;durP2;ratioP2;P2;SDS_P1;SDS_P2;PMS_P1;PMS_P2;Temp;Humidity;BMP_temperature;BMP_pressure;BME280_temperature;BME280_humidity;BME280_pressure;Samples;Min_cycle;Max_cycle;Signal;HPM_P1;HPM_P2
2021/09/02 00:00:48;;;;;;;5.45;4.57;;;11.50;99.90;;;;;;5079210;28;20048;-60
2021/09/02 00:03:20;;;;;;;5.78;4.55;;;11.50;99.90;;;;;;5082230;28;20066;-59
2021/09/02 00:05:49;;;;;;;6.25;5.35;;;11.40;99.90;;;;;;5088842;28;20052;-59
2021/09/02 00:08:18;;;;;;;7.90;5.70;;;11.40;99.90;;;;;;5072709;28;20052;-59
2021/09/02 00:10:44;;;;;;;6.05;5.00;;;11.30;99.90;;;;;;5085807;28;20105;-59
2021/09/02 00:13:11;;;;;;;4.95;4.45;;;11.30;99.90;;;;;;5088643;28;20407;-59
2021/09/02 00:15:44;;;;;;;6.22;5.45;;;11.30;99.90;;;;;;5089052;28;20052;-59
2021/09/02 00:18:11;;;;;;;33.53;9.55;;;11.30;99.90;;;;;;5089345;28;20065;-61
2021/09/02 00:20:42;;;;;;;26.80;9.82;;;11.30;99.90;;;;;;5075357;28;20140;-60
2021/09/02 00:23:10;;;;;;;23.98;10.63;;;11.30;99.90;;;;;;5071625;28;20079;-58
2021/09/02 00:25:36;;;;;;;16.90;9.25;;;11.20;99.90;;;;;;5103505;27;20114;-59
2021/09/02 00:28:06;;;;;;;10.65;8.27;;;11.20;99.90;;;;;;5070217;28;20405;-58
2021/09/02 00:30:32;;;;;;;9.38;7.63;;;11.20;99.90;;;;;;5076016;28;20068;-61
2021/09/02 00:33:01;;;;;;;8.15;5.93;;;11.20;99.90;;;;;;5086880;28;20123;-56
2021/09/02 00:35:31;;;;;;;6.82;6.15;;;11.20;99.90;;;;;;5087492;28;20055;-58
2021/09/02 00:37:59;;;;;;;7.35;6.53;;;11.20;99.90;;;;;;5085681;28;20117;-57
2021/09/02 00:40:28;;;;;;;6.55;5.25;;;11.10;99.90;;;;;;5083291;28;20553;-59
2021/09/02 00:42:54;;;;;;;5.93;4.93;;;11.10;99.90;;;;;;5073155;28;20098;-58
2021/09/02 00:45:24;;;;;;;6.78;5.13;;;11.10;99.90;;;;;;5081700;28;20499;-58
2021/09/02 00:47:54;;;;;;;5.75;4.78;;;11.10;99.90;;;;;;5085760;28;20048;-57
2021/09/02 00:50:23;;;;;;;5.95;5.00;;;11.10;99.90;;;;;;5099730;27;20139;-57
2021/09/02 00:52:53;;;;;;;7.53;5.38;;;11.00;99.90;;;;;;5075382;28;20040;-56
2021/09/02 00:55:22;;;;;;;7.18;5.90;;;11.00;99.90;;;;;;5067570;28;20414;-57
2021/09/02 00:57:51;;;;;;;7.38;5.53;;;11.00;99.90;;;;;;5083749;28;20102;-56
2021/09/02 01:00:20;;;;;;;7.47;6.07;;;11.00;99.90;;;;;;5067925;28;20386;-55
2021/09/02 01:02:47;;;;;;;6.30;4.80;;;11.00;99.90;;;;;;5073795;28;20536;-58
2021/09/02 01:05:21;;;;;;;6.93;4.97;;;11.00;99.90;;;;;;5086688;28;20054;-57
2021/09/02 01:07:50;;;;;;;6.47;5.78;;;11.00;99.90;;;;;;5085820;28;20473;-58
2021/09/02 01:10:20;;;;;;;6.32;4.97;;;10.90;99.90;;;;;;5085643;28;20122;-56
2021/09/02 01:12:53;;;;;;;6.05;4.93;;;10.90;99.90;;;;;;5073532;28;20056;-58
2021/09/02 01:15:25;;;;;;;4.28;3.67;;;10.80;99.90;;;;;;5086040;28;20051;-55
2021/09/02 01:17:54;;;;;;;8.73;3.97;;;10.80;99.90;;;;;;5073414;28;20133;-56
2021/09/02 01:20:31;;;;;;;5.28;4.15;;;10.80;99.90;;;;;;5086595;28;20059;-58
2021/09/02 01:23:01;;;;;;;6.50;4.40;;;10.80;99.90;;;;;;5078431;28;20051;-57
2021/09/02 01:25:33;;;;;;;6.10;4.10;;;10.70;99.90;;;;;;5071431;28;20381;-57
2021/09/02 01:28:06;;;;;;;5.90;4.05;;;10.70;99.90;;;;;;5117451;27;20404;-55
2021/09/02 01:30:35;;;;;;;5.05;3.63;;;10.70;99.90;;;;;;5085208;28;20047;-57
2021/09/02 01:33:02;;;;;;;5.13;3.80;;;10.70;99.90;;;;;;5085199;28;20063;-57
2021/09/02 01:35:32;;;;;;;5.22;3.72;;;10.70;99.90;;;;;;5086667;28;20078;-57
2021/09/02 01:38:01;;;;;;;4.93;3.83;;;10.60;99.90;;;;;;5068604;28;20105;-54
2021/09/02 01:40:31;;;;;;;4.95;3.65;;;10.60;99.90;;;;;;5086681;28;20055;-60
2021/09/02 01:43:05;;;;;;;3.85;3.00;;;10.60;99.90;;;;;;5084483;28;20626;-58
2021/09/02 01:45:35;;;;;;;5.97;3.40;;;10.60;99.90;;;;;;5070229;28;20390;-58
2021/09/02 01:48:05;;;;;;;4.75;3.50;;;10.60;99.90;;;;;;5100151;28;20056;-59
2021/09/02 01:50:40;;;;;;;4.97;3.30;;;10.60;99.90;;;;;;5085669;28;20397;-56
2021/09/02 01:53:08;;;;;;;4.50;3.15;;;10.60;99.90;;;;;;5065575;28;20552;-58
2021/09/02 01:55:37;;;;;;;4.57;3.38;;;10.50;99.90;;;;;;5080375;28;20044;-56
2021/09/02 01:58:06;;;;;;;4.38;3.13;;;10.50;99.90;;;;;;5083964;28;20053;-58
2021/09/02 02:00:36;;;;;;;3.92;2.88;;;10.60;99.90;;;;;;5091509;28;20056;-59
2021/09/02 02:03:02;;;;;;;4.35;3.35;;;10.50;99.90;;;;;;5083975;28;20056;-56
2021/09/02 02:05:31;;;;;;;6.22;3.42;;;10.50;99.90;;;;;;5081258;28;20055;-60
2021/09/02 02:07:58;;;;;;;3.70;3.00;;;10.50;99.90;;;;;;5088789;28;20090;-58
2021/09/02 02:10:28;;;;;;;6.93;3.50;;;10.50;99.90;;;;;;5089499;28;20052;-55
2021/09/02 02:13:01;;;;;;;5.40;3.30;;;10.50;99.90;;;;;;5089180;28;20515;-57
2021/09/02 02:15:28;;;;;;;5.20;3.65;;;10.50;99.90;;;;;;5088084;28;20087;-57
2021/09/02 02:17:58;;;;;;;5.03;3.42;;;10.40;99.90;;;;;;5079563;28;20079;-58
2021/09/02 02:20:30;;;;;;;5.00;3.30;;;10.40;99.90;;;;;;5082630;28;20096;-58
2021/09/02 02:22:59;;;;;;;5.85;3.70;;;10.40;99.90;;;;;;5069828;28;20059;-58
2021/09/02 02:25:26;;;;;;;6.00;3.85;;;10.50;99.90;;;;;;5073779;28;20052;-58
2021/09/02 02:27:53;;;;;;;4.63;3.30;;;10.40;99.90;;;;;;5074275;28;20048;-57
2021/09/02 02:30:24;;;;;;;5.00;3.50;;;10.40;99.90;;;;;;5081921;28;20062;-59
2021/09/02 02:32:51;;;;;;;3.67;2.83;;;10.40;99.90;;;;;;5079689;28;20129;-58
2021/09/02 02:35:23;;;;;;;4.20;2.95;;;10.40;99.90;;;;;;5085816;28;20408;-57
2021/09/02 02:37:50;;;;;;;3.80;2.67;;;10.30;99.90;;;;;;5069977;28;20055;-57
2021/09/02 02:40:18;;;;;;;4.93;3.33;;;10.30;99.90;;;;;;5069199;28;20056;-59
2021/09/02 02:42:45;;;;;;;4.03;2.72;;;10.20;99.90;;;;;;5086777;28;20060;-59
2021/09/02 02:45:12;;;;;;;3.42;2.42;;;10.20;99.90;;;;;;5088928;28;20052;-58
2021/09/02 02:47:42;;;;;;;3.10;2.28;;;10.10;99.90;;;;;;5087349;28;20105;-60
2021/09/02 02:50:09;;;;;;;2.78;2.22;;;10.10;99.90;;;;;;5088252;28;20071;-58
2021/09/02 02:52:35;;;;;;;4.30;2.97;;;10.00;99.90;;;;;;5088688;28;20047;-58
2021/09/02 02:55:05;;;;;;;4.05;2.63;;;10.00;99.90;;;;;;5089139;28;20079;-58
2021/09/02 02:57:32;;;;;;;4.30;2.65;;;10.00;99.90;;;;;;5086400;28;20377;-58
2021/09/02 03:00:03;;;;;;;4.13;3.20;;;10.00;99.90;;;;;;5074234;28;20136;-59
2021/09/02 03:02:32;;;;;;;3.25;2.58;;;10.00;99.90;;;;;;5072477;28;20059;-58
2021/09/02 03:05:02;;;;;;;3.50;2.65;;;10.00;99.90;;;;;;5079776;28;20454;-61
2021/09/02 03:07:29;;;;;;;3.97;2.97;;;9.90;99.90;;;;;;5082679;28;20090;-58
2021/09/02 03:09:58;;;;;;;5.22;3.25;;;9.90;99.90;;;;;;5070642;28;20070;-59
2021/09/02 03:12:25;;;;;;;4.95;3.40;;;9.90;99.90;;;;;;5088033;28;20064;-59
2021/09/02 03:14:54;;;;;;;4.63;2.97;;;9.90;99.90;;;;;;5087837;28;20055;-58
2021/09/02 03:17:22;;;;;;;5.45;4.15;;;9.90;99.90;;;;;;5085097;28;20059;-57
2021/09/02 03:19:52;;;;;;;6.57;3.72;;;9.80;99.90;;;;;;5077292;28;20046;-57
2021/09/02 03:22:18;;;;;;;5.72;3.95;;;9.80;99.90;;;;;;5086254;28;20054;-58
2021/09/02 03:24:47;;;;;;;5.82;4.07;;;9.80;99.90;;;;;;5082242;28;20888;-59
2021/09/02 03:27:17;;;;;;;6.90;4.47;;;9.80;99.90;;;;;;5069833;28;20509;-57
2021/09/02 03:29:51;;;;;;;;;;;9.80;99.90;;;;;;5080138;28;20044;-58
2021/09/02 03:32:20;;;;;;;5.57;3.70;;;9.70;99.90;;;;;;5068825;28;20042;-57
2021/09/02 03:34:49;;;;;;;5.50;3.95;;;9.70;99.90;;;;;;5082719;28;20047;-59
2021/09/02 03:37:21;;;;;;;5.25;4.18;;;9.70;99.90;;;;;;5087428;28;20048;-57
2021/09/02 03:39:50;;;;;;;6.32;4.22;;;9.60;99.90;;;;;;5072723;28;21854;-58
2021/09/02 03:42:16;;;;;;;6.03;4.00;;;9.60;99.90;;;;;;5069414;28;20067;-59
2021/09/02 03:44:48;;;;;;;6.35;3.75;;;9.60;99.90;;;;;;5085467;28;20165;-58
2021/09/02 03:47:16;;;;;;;6.00;4.20;;;9.60;99.90;;;;;;5088711;28;20055;-59
2021/09/02 03:49:45;;;;;;;7.25;4.50;;;9.60;99.90;;;;;;5085606;28;20049;-57
2021/09/02 03:52:19;;;;;;;7.70;4.45;;;9.60;99.90;;;;;;5070073;28;20055;-57
2021/09/02 03:54:48;;;;;;;6.43;3.67;;;9.60;99.90;;;;;;5067936;28;20098;-57
2021/09/02 03:57:17;;;;;;;5.45;4.15;;;9.60;99.90;;;;;;5084265;28;20059;-56
2021/09/02 03:59:46;;;;;;;6.22;4.22;;;9.50;99.90;;;;;;5081634;28;20040;-57
2021/09/02 04:02:14;;;;;;;6.18;4.15;;;9.50;99.90;;;;;;5075659;28;20056;-58
2021/09/02 04:04:45;;;;;;;5.57;3.85;;;9.50;99.90;;;;;;5087039;28;20048;-58
2021/09/02 04:07:14;;;;;;;8.65;4.57;;;9.50;99.90;;;;;;5084470;28;20105;-58
2021/09/02 04:09:43;;;;;;;4.63;3.22;;;9.50;99.90;;;;;;5085392;28;20535;-59
2021/09/02 04:12:14;;;;;;;6.03;3.80;;;9.50;99.90;;;;;;5080246;28;20048;-60
2021/09/02 04:14:45;;;;;;;4.95;3.72;;;9.50;99.90;;;;;;5087075;28;20066;-57
2021/09/02 04:17:14;;;;;;;4.65;3.33;;;9.40;99.90;;;;;;5078603;28;20051;-57
2021/09/02 04:19:47;;;;;;;5.30;3.50;;;9.40;99.90;;;;;;5087707;28;20129;-60
2021/09/02 04:22:13;;;;;;;5.22;3.53;;;9.40;99.90;;;;;;5086851;28;20056;-59
2021/09/02 04:24:42;;;;;;;6.45;3.03;;;9.40;99.90;;;;;;5085147;28;20131;-57
2021/09/02 04:27:14;;;;;;;5.25;3.42;;;9.40;99.90;;;;;;5087049;28;20480;-58
2021/09/02 04:29:43;;;;;;;5.00;3.08;;;9.40;99.90;;;;;;5074484;28;20059;-58
2021/09/02 04:32:18;;;;;;;4.72;3.28;;;9.40;99.90;;;;;;5087312;28;20055;-58
2021/09/02 04:34:47;;;;;;;3.88;2.55;;;9.40;99.90;;;;;;5088554;28;20088;-58
2021/09/02 04:37:13;;;;;;;6.75;3.50;;;9.40;99.90;;;;;;5083319;28;20052;-58
2021/09/02 04:39:42;;;;;;;5.43;2.83;;;9.40;99.90;;;;;;5067186;28;20193;-59
2021/09/02 04:42:11;;;;;;;3.88;2.88;;;9.30;99.90;;;;;;5081335;28;20468;-60
2021/09/02 04:44:37;;;;;;;4.50;3.25;;;9.30;99.90;;;;;;5070473;28;20067;-60
2021/09/02 04:47:03;;;;;;;6.07;3.60;;;9.30;99.90;;;;;;5066881;28;20049;-58
2021/09/02 04:49:33;;;;;;;5.38;3.58;;;9.40;99.90;;;;;;5067036;28;20052;-57
2021/09/02 04:51:59;;;;;;;6.65;4.50;;;9.50;99.90;;;;;;5081307;28;20087;-57
2021/09/02 04:54:28;;;;;;;5.45;3.38;;;9.50;99.90;;;;;;5083315;28;20052;-60
2021/09/02 04:56:59;;;;;;;4.35;3.25;;;9.60;99.90;;;;;;5087112;28;20995;-58
2021/09/02 04:59:28;;;;;;;6.53;3.65;;;9.70;99.90;;;;;;5081653;28;20130;-58
2021/09/02 05:02:00;;;;;;;9.45;4.53;;;9.70;99.90;;;;;;5095476;28;20416;-58
2021/09/02 05:04:26;;;;;;;5.50;4.05;;;9.70;99.90;;;;;;5080988;28;20056;-58
2021/09/02 05:06:55;;;;;;;10.50;5.20;;;9.80;99.90;;;;;;5086407;28;20060;-58
2021/09/02 05:09:24;;;;;;;7.18;3.67;;;9.90;99.90;;;;;;5084756;28;20408;-58
2021/09/02 05:11:56;;;;;;;9.57;3.72;;;9.90;99.90;;;;;;5085424;28;20055;-58
2021/09/02 05:14:22;;;;;;;;;;;10.00;99.90;;;;;;5084674;28;20870;-57
2021/09/02 05:16:48;;;;;;;8.00;3.80;;;10.10;99.90;;;;;;5073454;28;19924;-57
2021/09/02 05:19:15;;;;;;;7.40;5.72;;;10.20;99.90;;;;;;5080931;28;20063;-49
2021/09/02 05:21:46;;;;;;;9.65;6.10;;;10.30;99.90;;;;;;5080219;28;20408;-60
2021/09/02 05:24:15;;;;;;;9.50;6.45;;;10.40;99.90;;;;;;5084003;28;20520;-59
2021/09/02 05:26:43;;;;;;;12.40;10.25;;;10.70;99.90;;;;;;5074111;28;20052;-60
2021/09/02 05:29:14;;;;;;;27.75;19.73;;;10.70;99.90;;;;;;5082027;28;20566;-60
2021/09/02 05:31:43;;;;;;;12.20;9.60;;;10.80;99.90;;;;;;5075175;28;20651;-60
2021/09/02 05:34:12;;;;;;;9.02;7.45;;;11.00;99.90;;;;;;5080083;28;20559;-60
2021/09/02 05:36:43;;;;;;;10.57;8.25;;;11.00;99.90;;;;;;5078436;28;20105;-60
2021/09/02 05:39:09;;;;;;;12.82;8.40;;;11.10;99.90;;;;;;5074984;28;20500;-61
2021/09/02 05:41:41;;;;;;;11.63;8.32;;;11.20;99.90;;;;;;5088914;28;20095;-60
2021/09/02 05:44:11;;;;;;;14.20;8.25;;;11.30;99.90;;;;;;5087880;28;20083;-60
2021/09/02 05:46:40;;;;;;;9.40;7.00;;;11.40;99.90;;;;;;5088837;28;20063;-61
2021/09/02 05:49:09;;;;;;;11.77;7.93;;;11.50;99.90;;;;;;5079652;28;20056;-62
2021/09/02 05:51:38;;;;;;;30.50;24.15;;;11.60;99.90;;;;;;5085857;28;20053;-61
2021/09/02 05:54:07;;;;;;;23.40;18.75;;;11.70;99.90;;;;;;5080010;28;20047;-60
2021/09/02 05:56:38;;;;;;;72.70;61.88;;;11.70;99.90;;;;;;5080647;28;20052;-60
2021/09/02 05:59:11;;;;;;;16.15;10.55;;;11.80;99.90;;;;;;5086439;28;20071;-62
2021/09/02 06:01:39;;;;;;;21.75;16.60;;;11.90;99.90;;;;;;5082745;28;20048;-59
2021/09/02 06:04:08;;;;;;;21.40;16.70;;;12.00;99.90;;;;;;5083388;28;20776;-60
2021/09/02 06:06:37;;;;;;;14.90;9.27;;;12.20;99.90;;;;;;5081580;28;20048;-57
2021/09/02 06:09:07;;;;;;;18.23;13.63;;;12.30;99.90;;;;;;5084744;28;20510;-60
2021/09/02 06:11:34;;;;;;;16.40;9.93;;;12.30;99.90;;;;;;5082638;28;20048;-59
2021/09/02 06:14:03;;;;;;;14.82;9.75;;;12.30;99.90;;;;;;5080743;28;20395;-61
2021/09/02 06:16:31;;;;;;;11.95;8.50;;;12.40;99.90;;;;;;5079086;28;20056;-60
2021/09/02 06:19:00;;;;;;;13.30;9.15;;;12.40;99.90;;;;;;5079243;28;20079;-61
2021/09/02 06:21:27;;;;;;;12.95;9.70;;;12.40;99.90;;;;;;5074110;28;20504;-61
2021/09/02 06:23:53;;;;;;;13.52;9.93;;;12.50;99.90;;;;;;5076997;28;20045;-61
2021/09/02 06:26:20;;;;;;;14.48;10.32;;;12.60;99.90;;;;;;5087775;28;20048;-62
2021/09/02 06:28:46;;;;;;;12.65;8.90;;;12.70;99.90;;;;;;5084621;28;20135;-62
2021/09/02 06:31:12;;;;;;;12.88;9.43;;;12.80;99.90;;;;;;5078688;28;20386;-61
2021/09/02 06:33:40;;;;;;;13.60;9.70;;;12.80;99.90;;;;;;5088332;28;20804;-61
2021/09/02 06:36:06;;;;;;;13.90;9.15;;;13.00;99.90;;;;;;5080874;28;20044;-62
2021/09/02 06:38:33;;;;;;;11.02;8.73;;;13.10;99.90;;;;;;5089299;28;20058;-61
2021/09/02 06:40:59;;;;;;;12.30;9.20;;;13.10;99.90;;;;;;5078982;28;20504;-62
2021/09/02 06:43:25;;;;;;;11.43;8.70;;;13.20;99.90;;;;;;5088061;28;20060;-62
2021/09/02 06:45:51;;;;;;;15.05;9.55;;;13.30;99.90;;;;;;5071225;28;20487;-62
2021/09/02 06:48:17;;;;;;;15.38;9.43;;;13.30;99.90;;;;;;5071569;28;20059;-61
2021/09/02 06:50:43;;;;;;;13.82;10.30;;;13.40;99.90;;;;;;5071378;28;20156;-62
2021/09/02 06:53:10;;;;;;;15.77;10.00;;;13.60;99.90;;;;;;5076189;28;20051;-61
2021/09/02 06:55:39;;;;;;;12.55;9.23;;;13.70;99.90;;;;;;5079042;28;20594;-61
2021/09/02 06:58:05;;;;;;;13.88;10.18;;;13.70;99.90;;;;;;5073489;28;20102;-60
2021/09/02 07:00:31;;;;;;;17.45;10.52;;;13.80;99.90;;;;;;5077238;28;20059;-60
2021/09/02 07:02:57;;;;;;;13.20;10.23;;;13.80;99.90;;;;;;5075012;28;20045;-60
2021/09/02 07:05:23;;;;;;;15.35;10.20;;;13.90;99.90;;;;;;5068700;28;20140;-60
2021/09/02 07:07:51;;;;;;;15.07;10.98;;;14.00;99.90;;;;;;5081168;28;20051;-61
2021/09/02 07:10:17;;;;;;;15.18;10.63;;;14.10;99.90;;;;;;5073077;28;20052;-61
2021/09/02 07:12:44;;;;;;;15.55;11.55;;;14.20;99.90;;;;;;5106013;27;20060;-54
2021/09/02 07:15:10;;;;;;;16.23;10.50;;;14.30;99.90;;;;;;5088406;28;20048;-55
2021/09/02 07:17:36;;;;;;;20.15;11.73;;;14.40;99.90;;;;;;5085646;28;20051;-55
2021/09/02 07:20:05;;;;;;;14.43;11.73;;;14.50;99.90;;;;;;5086569;28;20044;-51
2021/09/02 07:22:32;;;;;;;14.43;11.32;;;14.60;99.90;;;;;;5077031;28;20055;-55
2021/09/02 07:24:58;;;;;;;14.45;10.85;;;14.70;99.90;;;;;;5074328;28;20044;-54
2021/09/02 07:27:27;;;;;;;15.75;11.13;;;14.80;99.90;;;;;;5074970;28;20567;-54
2021/09/02 07:29:53;;;;;;;31.70;25.45;;;14.80;99.90;;;;;;5076740;28;20622;-56
2021/09/02 07:32:22;;;;;;;29.60;24.88;;;14.90;99.90;;;;;;5078689;28;20110;-55
2021/09/02 07:34:53;;;;;;;15.32;11.43;;;15.10;99.90;;;;;;5070343;28;20044;-55
2021/09/02 07:37:22;;;;;;;13.82;10.15;;;15.10;99.90;;;;;;5079243;28;20132;-55
2021/09/02 07:39:53;;;;;;;15.73;12.57;;;15.30;99.90;;;;;;5081646;28;20052;-55
2021/09/02 07:42:25;;;;;;;15.45;10.57;;;15.40;99.90;;;;;;5087074;28;20052;-57
2021/09/02 07:44:52;;;;;;;12.65;9.95;;;15.40;99.90;;;;;;5079976;28;20075;-56
2021/09/02 07:47:18;;;;;;;13.30;9.85;;;15.50;99.90;;;;;;5078183;28;20055;-54
2021/09/02 07:49:47;;;;;;;18.02;10.77;;;15.60;99.90;;;;;;5082228;28;20105;-57
2021/09/02 07:52:19;;;;;;;18.35;12.25;;;15.70;99.90;;;;;;5082182;28;20047;-57
2021/09/02 07:54:45;;;;;;;16.92;10.52;;;15.80;99.90;;;;;;5083942;28;20051;-56
2021/09/02 07:57:17;;;;;;;19.88;14.15;;;15.90;99.90;;;;;;5071134;28;20052;-54
2021/09/02 07:59:46;;;;;;;32.55;28.67;;;16.00;99.90;;;;;;5080561;28;20045;-56
2021/09/02 08:02:17;;;;;;;15.27;11.93;;;16.10;99.90;;;;;;5080957;28;20044;-54
2021/09/02 08:04:47;;;;;;;14.93;10.27;;;16.20;99.90;;;;;;5087526;28;20052;-57
2021/09/02 08:07:19;;;;;;;15.63;10.45;;;16.10;99.90;;;;;;5087915;28;20112;-55
2021/09/02 08:09:47;;;;;;;19.48;14.68;;;16.20;99.90;;;;;;5085262;28;20067;-55
2021/09/02 08:12:18;;;;;;;16.35;10.95;;;16.30;99.90;;;;;;5080105;28;20056;-58
2021/09/02 08:14:47;;;;;;;28.63;22.58;;;16.30;99.90;;;;;;5084595;28;20105;-55
2021/09/02 08:17:16;;;;;;;17.00;10.73;;;16.50;99.90;;;;;;5071436;28;20044;-53
2021/09/02 08:19:48;;;;;;;15.55;10.93;;;16.50;99.90;;;;;;5100512;28;20058;-54
2021/09/02 08:22:15;;;;;;;52.33;44.70;;;16.60;99.90;;;;;;5074211;28;20055;-56
2021/09/02 08:24:50;;;;;;;29.85;21.05;;;16.60;99.90;;;;;;5066363;28;20527;-56
2021/09/02 08:27:17;;;;;;;29.77;21.80;;;16.70;99.90;;;;;;5083173;28;20159;-53
2021/09/02 08:29:49;;;;;;;14.23;10.88;;;16.70;99.90;;;;;;5074899;28;20045;-52
2021/09/02 08:32:23;;;;;;;20.85;18.10;;;16.80;99.90;;;;;;5073469;28;20612;-55
2021/09/02 08:34:54;;;;;;;16.02;10.70;;;17.00;99.90;;;;;;5072863;28;20052;-53
2021/09/02 08:37:37;;;;;;;17.55;10.93;;;17.00;99.90;;;;;;5086133;28;20257;-56
2021/09/02 08:40:09;;;;;;;25.83;16.75;;;17.10;99.90;;;;;;5076276;28;20218;-52
2021/09/02 08:42:36;;;;;;;30.27;24.20;;;17.20;99.90;;;;;;5083960;28;20090;-53
2021/09/02 08:45:11;;;;;;;19.10;12.52;;;17.20;99.90;;;;;;5074534;28;20073;-52
2021/09/02 08:47:37;;;;;;;22.58;18.58;;;17.30;99.90;;;;;;5075848;28;20177;-53
2021/09/02 08:50:07;;;;;;;16.63;10.73;;;17.60;99.90;;;;;;5072163;28;20127;-58
2021/09/02 08:52:34;;;;;;;16.05;10.25;;;17.60;99.90;;;;;;5062870;28;20055;-55
2021/09/02 08:55:02;;;;;;;29.98;21.10;;;17.60;99.90;;;;;;5076401;28;20087;-49
2021/09/02 08:57:29;;;;;;;19.45;12.27;;;17.80;99.90;;;;;;5080982;28;20075;-58
2021/09/02 08:59:55;;;;;;;17.88;11.50;;;17.80;99.90;;;;;;5074298;28;20052;-58
2021/09/02 09:02:29;;;;;;;23.42;16.27;;;17.80;99.90;;;;;;5068645;28;20400;-58
2021/09/02 09:05:06;;;;;;;25.77;18.00;;;18.00;99.90;;;;;;5083943;28;20050;-49
2021/09/02 09:07:36;;;;;;;26.92;21.38;;;18.30;99.90;;;;;;5078739;28;20109;-48
2021/09/02 09:10:14;;;;;;;20.27;12.15;;;18.30;99.90;;;;;;5086457;28;20059;-55
2021/09/02 09:12:43;;;;;;;19.25;11.85;;;18.40;99.90;;;;;;5088375;28;20560;-51
2021/09/02 09:15:16;;;;;;;19.50;11.65;;;18.40;99.90;;;;;;5083208;28;20096;-49
2021/09/02 09:17:44;;;;;;;17.42;11.65;;;18.50;99.90;;;;;;5084453;28;20133;-53
2021/09/02 09:20:16;;;;;;;17.95;10.55;;;18.60;99.90;;;;;;5083276;28;20059;-51
2021/09/02 09:22:43;;;;;;;19.80;11.70;;;18.80;99.90;;;;;;5065907;28;20055;-49
2021/09/02 09:25:11;;;;;;;17.85;10.90;;;18.90;99.90;;;;;;5069823;28;20554;-55
2021/09/02 09:27:38;;;;;;;16.48;9.70;;;19.10;99.90;;;;;;5076718;28;20449;-51
2021/09/02 09:30:19;;;;;;;18.23;12.40;;;19.00;99.90;;;;;;5080462;28;20086;-48
2021/09/02 09:32:48;;;;;;;18.52;11.52;;;19.10;99.90;;;;;;5066785;28;20114;-48
2021/09/02 09:35:20;;;;;;;;;;;19.10;99.90;;;;;;5067134;28;20551;-50
2021/09/02 09:37:49;;;;;;;20.98;11.73;;;19.10;99.90;;;;;;5072960;28;20307;-50
2021/09/02 09:40:23;;;;;;;17.60;11.32;;;19.20;99.90;;;;;;5080023;28;20048;-50
2021/09/02 09:42:58;;;;;;;43.13;32.25;;;19.50;99.90;;;;;;5066145;28;20532;-53
2021/09/02 09:45:53;;;;;;;20.92;11.20;;;19.60;99.90;;;;;;5072367;28;20060;-50
2021/09/02 09:48:38;;;;;;;22.67;11.38;;;19.70;99.90;;;;;;5066765;28;20052;-52
2021/09/02 09:51:13;;;;;;;16.00;10.57;;;19.70;99.90;;;;;;5081950;28;20137;-54
2021/09/02 09:53:41;;;;;;;18.23;11.13;;;19.80;99.90;;;;;;5079489;28;20048;-52
2021/09/02 09:56:11;;;;;;;;;;;19.80;99.90;;;;;;5080109;28;20131;-49
2021/09/02 09:58:41;;;;;;;14.70;10.18;;;19.70;99.90;;;;;;5084511;28;19928;-50
2021/09/02 10:01:08;;;;;;;15.60;10.52;;;19.90;99.90;;;;;;5081798;28;20055;-48
2021/09/02 10:03:40;;;;;;;21.52;12.48;;;19.70;99.90;;;;;;5072854;28;20052;-52
2021/09/02 10:06:11;;;;;;;17.00;10.60;;;19.90;99.90;;;;;;5084692;28;20071;-53
2021/09/02 10:08:42;;;;;;;19.30;11.33;;;19.90;99.90;;;;;;5073650;28;20142;-50
2021/09/02 10:11:13;;;;;;;16.77;10.57;;;20.00;99.90;;;;;;5074217;28;20466;-53
2021/09/02 10:13:44;;;;;;;20.90;12.15;;;20.00;99.90;;;;;;5067679;28;20103;-53
2021/09/02 10:16:13;;;;;;;19.50;11.75;;;20.40;99.90;;;;;;5071514;28;20068;-55
2021/09/02 10:18:44;;;;;;;26.92;19.83;;;21.00;99.90;;;;;;5099929;28;20090;-53
2021/09/02 10:21:11;;;;;;;17.08;10.48;;;21.30;99.90;;;;;;5074486;28;20063;-51
2021/09/02 10:23:44;;;;;;;19.17;10.63;;;21.60;99.90;;;;;;5084378;28;20861;-51
2021/09/02 10:26:31;;;;;;;18.58;10.38;;;21.80;99.90;;;;;;5083146;28;20825;-54
2021/09/02 10:28:57;;;;;;;15.20;9.57;;;22.70;98.40;;;;;;5079896;28;20052;-51
2021/09/02 10:31:26;;;;;;;17.40;10.73;;;23.20;97.70;;;;;;5083188;28;20067;-51
2021/09/02 10:33:56;;;;;;;18.65;13.25;;;23.70;83.80;;;;;;5079817;28;20057;-50
2021/09/02 10:36:28;;;;;;;13.27;9.07;;;24.10;84.40;;;;;;5090015;28;20058;-54
2021/09/02 10:38:56;;;;;;;15.77;8.63;;;24.10;78.50;;;;;;5079605;28;21955;-56
2021/09/02 10:41:37;;;;;;;14.75;9.13;;;24.00;80.60;;;;;;5072339;28;20062;-52
2021/09/02 10:44:08;;;;;;;15.57;9.30;;;24.10;71.20;;;;;;5077083;28;20056;-52
2021/09/02 10:46:36;;;;;;;14.77;10.07;;;23.30;75.60;;;;;;5076521;28;20401;-51
2021/09/02 10:49:26;;;;;;;14.75;9.38;;;22.90;78.20;;;;;;5087377;28;20051;-49
2021/09/02 10:52:02;;;;;;;18.85;12.55;;;22.90;81.40;;;;;;5072161;28;20493;-56
2021/09/02 10:54:38;;;;;;;20.55;10.95;;;23.00;76.80;;;;;;5073474;28;20045;-53
2021/09/02 10:57:16;;;;;;;16.45;10.73;;;22.80;79.70;;;;;;5069356;28;20078;-53
2021/09/02 10:59:52;;;;;;;16.38;11.75;;;22.60;82.50;;;;;;5074321;28;20049;-54
2021/09/02 11:02:24;;;;;;;15.68;10.80;;;23.50;81.40;;;;;;5076764;28;20355;-53
2021/09/02 11:05:08;;;;;;;15.80;9.00;;;23.90;77.20;;;;;;5089110;28;20064;-56
2021/09/02 11:07:48;;;;;;;60.38;54.53;;;24.70;70.50;;;;;;5079846;28;20052;-57
2021/09/02 11:10:23;;;;;;;63.15;56.83;;;25.60;66.00;;;;;;5083457;28;20096;-52
2021/09/02 11:13:04;;;;;;;15.90;9.55;;;25.80;67.20;;;;;;5085240;28;20051;-54
2021/09/02 11:15:36;;;;;;;13.65;9.88;;;26.30;63.20;;;;;;5083898;28;20050;-52
2021/09/02 11:18:10;;;;;;;14.60;9.70;;;25.70;61.80;;;;;;5086926;28;20062;-53
2021/09/02 11:20:46;;;;;;;14.80;9.52;;;26.60;61.90;;;;;;5083716;28;20076;-52
2021/09/02 11:23:17;;;;;;;12.25;9.05;;;26.70;58.00;;;;;;5080848;28;20630;-60
2021/09/02 11:25:52;;;;;;;17.42;9.65;;;26.80;58.40;;;;;;5074663;28;20755;-59
2021/09/02 11:28:21;;;;;;;14.10;9.13;;;27.60;56.60;;;;;;5072601;28;20048;-59
2021/09/02 11:30:52;;;;;;;15.00;9.50;;;27.50;55.90;;;;;;5064768;28;20102;-59
2021/09/02 11:33:21;;;;;;;14.57;9.80;;;27.30;53.60;;;;;;5088197;28;20052;-59
2021/09/02 11:35:58;;;;;;;13.60;9.50;;;26.90;54.90;;;;;;5076623;28;20056;-59
2021/09/02 11:38:32;;;;;;;13.07;9.70;;;27.30;54.50;;;;;;5067813;28;20088;-59
2021/09/02 11:41:18;;;;;;;13.05;9.25;;;27.60;51.30;;;;;;5072633;28;20048;-59
2021/09/02 11:43:51;;;;;;;13.43;9.20;;;27.20;52.30;;;;;;5082445;28;20060;-59
2021/09/02 11:46:22;;;;;;;12.00;9.25;;;27.50;52.60;;;;;;5070816;28;20160;-58
2021/09/02 11:48:52;;;;;;;;;;;27.80;52.40;;;;;;5067373;28;20048;-59
2021/09/02 11:51:31;;;;;;;13.93;9.18;;;27.60;52.70;;;;;;5081170;28;19924;-58
2021/09/02 11:54:15;;;;;;;13.20;9.95;;;28.20;51.20;;;;;;5086394;28;20562;-58
2021/09/02 11:56:44;;;;;;;10.85;8.30;;;27.30;48.30;;;;;;5076264;28;20052;-58
2021/09/02 11:59:13;;;;;;;15.57;9.63;;;27.10;50.90;;;;;;5075427;28;20048;-60
2021/09/02 12:02:00;;;;;;;12.02;9.98;;;27.30;50.90;;;;;;5073317;28;20135;-58
2021/09/02 12:04:29;;;;;;;13.38;9.20;;;27.70;47.80;;;;;;5071690;28;20450;-60
2021/09/02 12:06:58;;;;;;;14.02;9.27;;;27.30;50.30;;;;;;5080803;28;20079;-58
2021/09/02 12:09:34;;;;;;;12.82;9.32;;;26.90;51.10;;;;;;5073822;28;20139;-59
2021/09/02 12:12:06;;;;;;;13.50;9.73;;;26.80;51.20;;;;;;5082814;28;20481;-58
2021/09/02 12:14:35;;;;;;;12.75;9.65;;;26.10;52.00;;;;;;5074586;28;20136;-59
2021/09/02 12:17:09;;;;;;;14.30;9.82;;;26.40;52.80;;;;;;5086788;28;20056;-56
2021/09/02 12:19:54;;;;;;;21.02;17.65;;;26.90;52.30;;;;;;5082529;28;20095;-56
2021/09/02 12:22:43;;;;;;;13.02;8.95;;;27.50;52.90;;;;;;5080979;28;20055;-56
2021/09/02 12:25:22;;;;;;;14.15;9.35;;;26.90;52.50;;;;;;5085692;28;20055;-56
2021/09/02 12:27:57;;;;;;;16.60;12.52;;;26.00;53.40;;;;;;5075627;28;20052;-57
2021/09/02 12:30:47;;;;;;;15.38;9.85;;;25.80;55.60;;;;;;5077717;28;20056;-57
2021/09/02 12:33:17;;;;;;;13.82;10.00;;;25.40;55.10;;;;;;5103059;27;20050;-57
2021/09/02 12:35:47;;;;;;;15.35;9.80;;;25.00;55.20;;;;;;5105729;27;20174;-58
2021/09/02 12:38:35;;;;;;;14.05;9.23;;;24.60;57.00;;;;;;5078876;28;20048;-56
2021/09/02 12:41:18;;;;;;;14.48;9.55;;;24.30;60.20;;;;;;5086754;28;20526;-56
2021/09/02 12:44:12;;;;;;;16.45;10.55;;;24.60;58.80;;;;;;5089438;27;20063;-56
2021/09/02 12:47:00;;;;;;;16.80;9.75;;;24.20;59.90;;;;;;5076808;28;20054;-56
2021/09/02 12:49:38;;;;;;;13.73;9.25;;;24.20;61.20;;;;;;5082026;28;20048;-56
2021/09/02 12:52:24;;;;;;;27.27;24.10;;;24.10;60.40;;;;;;5079272;28;20520;-56
2021/09/02 12:55:04;;;;;;;14.30;11.15;;;24.40;61.00;;;;;;5072297;28;20468;-55
2021/09/02 12:57:35;;;;;;;16.15;10.10;;;25.30;60.50;;;;;;5069694;28;20060;-57